Time;durP1;ratioP1;P1;durP2;ratioP2;P2;SDS_P1;SDS_P2;PMS_P1;PMS_P2;Temp;Humidity;BMP_temperature;BMP_pressure;BME280_temperature;BME280_humidity;BME280_pressure;Samples;Min_cycle;Max_cycle;Signal;HPM_P1;HPM_P2
2022/09/23 00:01:27;;;;;;;;;;;;;;;;;;6170300;23;19911;-86
2022/09/23 00:03:53;;;;;;;;;;;;;;;;;;6195197;23;19915;-86
2022/09/23 00:06:19;;;;;;;;;;;;;;;;;;6195135;23;19995;-85
2022/09/23 00:08:45;;;;;;;;;;;;;;;;;;6194275;23;19908;-86
2022/09/23 00:11:10;;;;;;;;;;;;;;;;;;6167835;23;19951;-85
2022/09/23 00:13:36;;;;;;;;;;;;;;;;;;6167560;23;20311;-87
2022/09/23 00:16:01;;;;;;;;;;;;;;;;;;6167300;23;19908;-87
2022/09/23 00:18:26;;;;;;;;;;;;;;;;;;6193660;23;19908;-87
2022/09/23 00:20:52;;;;;;;;;;;;;;;;;;6167234;23;19904;-84
2022/09/23 00:23:17;;;;;;;;;;;;;;;;;;6166390;23;19970;-85
2022/09/23 00:25:42;;;;;;;;;;;;;;;;;;6193409;23;19911;-86
2022/09/23 00:28:08;;;;;;;;;;;;;;;;;;6167350;23;19908;-83
2022/09/23 00:30:33;;;;;;;;;;;;;;;;;;6170052;23;19955;-84
2022/09/23 00:32:59;;;;;;;;;;;;;;;;;;6168356;23;19963;-85
2022/09/23 00:35:24;;;;;;;;;;;;;;;;;;6169436;23;19908;-85
2022/09/23 00:37:49;;;;;;;;;;;;;;;;;;6167752;23;19919;-87
2022/09/23 00:40:15;;;;;;;;;;;;;;;;;;6170027;23;19911;-84
2022/09/23 00:42:40;;;;;;;;;;;;;;;;;;6168526;23;19907;-85
2022/09/23 00:45:06;;;;;;;;;;;;;;;;;;6169500;23;19904;-86
2022/09/23 00:47:32;;;;;;;;;;;;;;;;;;6173554;23;19908;-85
2022/09/23 00:49:59;;;;;;;;;;;;;;;;;;6195029;23;19911;-85
2022/09/23 00:52:24;;;;;;;;;;;;;;;;;;6195921;23;19912;-85
2022/09/23 00:54:49;;;;;;;;;;;;;;;;;;6169305;23;19916;-85
2022/09/23 00:57:15;;;;;;;;;;;;;;;;;;6169358;23;19915;-86
2022/09/23 00:59:40;;;;;;;;;;;;;;;;;;6169371;23;19904;-85
2022/09/23 01:02:06;;;;;;;;;;;;;;;;;;6169555;23;19908;-85
2022/09/23 01:04:31;;;;;;;;;;;;;;;;;;6171937;23;19919;-85
2022/09/23 01:06:56;;;;;;;;;;;;;;;;;;6168208;23;19958;-86
2022/09/23 01:09:22;;;;;;;;;;;;;;;;;;6170387;23;19927;-83
2022/09/23 01:11:47;;;;;;;;;;;;;;;;;;6194372;23;19995;-85
2022/09/23 01:14:12;;;;;;;;;;;;;;;;;;6169773;23;20259;-85
2022/09/23 01:16:38;;;;;;;;;;;;;;;;;;6172349;23;20291;-85
2022/09/23 01:19:03;;;;;;;;;;;;;;;;;;6174404;23;19904;-85
2022/09/23 01:21:28;;;;;;;;;;;;;;;;;;6172436;23;19916;-85
2022/09/23 01:23:54;;;;;;;;;;;;;;;;;;6169778;23;19978;-84
2022/09/23 01:26:19;;;;;;;;;;;;;;;;;;6197385;23;19935;-86
2022/09/23 01:28:44;;;;;;;;;;;;;;;;;;6168513;23;19904;-85
2022/09/23 01:31:10;;;;;;;;;;;;;;;;;;6168244;23;19919;-85
2022/09/23 01:33:35;;;;;;;;;;;;;;;;;;6171602;23;19904;-86
2022/09/23 01:36:01;;;;;;;;;;;;;;;;;;6176873;23;19964;-87
2022/09/23 01:38:28;;;;;;;;;;;;;;;;;;6222093;23;19968;-85
2022/09/23 01:40:54;;;;;;;;;;;;;;;;;;6199739;23;19938;-84
2022/09/23 01:43:19;;;;;;;;;;;;;;;;;;6196630;23;19903;-85
2022/09/23 01:45:44;;;;;;;;;;;;;;;;;;6198809;23;20227;-84
2022/09/23 01:48:12;;;;;;;;;;;;;;;;;;6223620;23;20243;-84
2022/09/23 01:50:56;;;;;;;;;;;;;;;;;;6197529;23;19914;-85
2022/09/23 01:53:21;;;;;;;;;;;;;;;;;;6201519;23;19912;-84
2022/09/23 01:55:47;;;;;;;;;;;;;;;;;;6227211;23;19926;-84
2022/09/23 01:58:12;;;;;;;;;;;;;;;;;;6199995;23;19915;-85
2022/09/23 02:00:39;;;;;;;;;;;;;;;;;;6199171;23;19943;-84
2022/09/23 02:03:04;;;;;;;;;;;;;;;;;;6198159;23;19907;-84
2022/09/23 02:05:30;;;;;;;;;;;;;;;;;;6226048;23;19904;-84
2022/09/23 02:07:58;;;;;;;;;;;;;;;;;;6202298;23;19907;-84
2022/09/23 02:10:23;;;;;;;;;;;;;;;;;;6225215;23;20303;-85
2022/09/23 02:12:49;;;;;;;;;;;;;;;;;;6198424;23;19919;-85
2022/09/23 02:15:14;;;;;;;;;;;;;;;;;;6199177;23;19903;-84
2022/09/23 02:17:40;;;;;;;;;;;;;;;;;;6198640;23;19908;-84
2022/09/23 02:20:05;;;;;;;;;;;;;;;;;;6200097;23;19904;-85
2022/09/23 02:22:30;;;;;;;;;;;;;;;;;;6224846;23;19900;-85
2022/09/23 02:24:56;;;;;;;;;;;;;;;;;;6224350;23;20332;-85
2022/09/23 02:27:21;;;;;;;;;;;;;;;;;;6223011;23;19971;-85
2022/09/23 02:29:48;;;;;;;;;;;;;;;;;;6223130;23;19990;-86
2022/09/23 02:32:13;;;;;;;;;;;;;;;;;;6223983;23;19962;-86
2022/09/23 02:34:38;;;;;;;;;;;;;;;;;;6225441;23;20279;-86
2022/09/23 02:37:04;;;;;;;;;;;;;;;;;;6200641;23;19916;-86
2022/09/23 02:39:29;;;;;;;;;;;;;;;;;;6228761;23;19904;-86
2022/09/23 02:41:55;;;;;;;;;;;;;;;;;;6230547;23;19943;-86
2022/09/23 02:44:21;;;;;;;;;;;;;;;;;;6202767;23;20316;-86
2022/09/23 02:46:49;;;;;;;;;;;;;;;;;;6227007;23;19912;-85
2022/09/23 02:49:14;;;;;;;;;;;;;;;;;;6225854;23;19903;-85
2022/09/23 02:51:40;;;;;;;;;;;;;;;;;;6225241;23;19959;-84
2022/09/23 02:54:06;;;;;;;;;;;;;;;;;;6225735;23;19990;-85
2022/09/23 02:56:31;;;;;;;;;;;;;;;;;;6224357;23;19908;-84
2022/09/23 02:58:56;;;;;;;;;;;;;;;;;;6223987;23;19999;-85
2022/09/23 03:01:22;;;;;;;;;;;;;;;;;;6224725;23;19931;-85
2022/09/23 03:03:47;;;;;;;;;;;;;;;;;;6197508;23;19982;-85
2022/09/23 03:06:13;;;;;;;;;;;;;;;;;;6222957;23;19908;-85
2022/09/23 03:08:38;;;;;;;;;;;;;;;;;;6221373;23;19904;-84
2022/09/23 03:11:04;;;;;;;;;;;;;;;;;;6222072;23;20006;-84
2022/09/23 03:13:29;;;;;;;;;;;;;;;;;;6222744;23;19904;-84
2022/09/23 03:15:56;;;;;;;;;;;;;;;;;;6223897;23;19908;-84
2022/09/23 03:18:21;;;;;;;;;;;;;;;;;;6224768;23;19938;-85
2022/09/23 03:20:49;;;;;;;;;;;;;;;;;;6223797;23;19907;-86
2022/09/23 03:23:14;;;;;;;;;;;;;;;;;;6196985;23;19903;-85
2022/09/23 03:25:39;;;;;;;;;;;;;;;;;;6224212;23;19908;-87
2022/09/23 03:28:05;;;;;;;;;;;;;;;;;;6227311;23;19950;-87
2022/09/23 03:30:30;;;;;;;;;;;;;;;;;;6226585;23;19914;-86
2022/09/23 03:32:55;;;;;;;;;;;;;;;;;;6198546;23;19912;-86
2022/09/23 03:35:21;;;;;;;;;;;;;;;;;;6201351;23;19914;-86
2022/09/23 03:37:46;;;;;;;;;;;;;;;;;;6200237;23;19968;-85
2022/09/23 03:40:12;;;;;;;;;;;;;;;;;;6226564;23;19908;-86
2022/09/23 03:42:38;;;;;;;;;;;;;;;;;;6202832;23;20274;-85
2022/09/23 03:45:05;;;;;;;;;;;;;;;;;;6200706;23;19908;-85
2022/09/23 03:47:30;;;;;;;;;;;;;;;;;;6200402;23;19911;-86
2022/09/23 03:49:56;;;;;;;;;;;;;;;;;;6198880;23;19912;-86
2022/09/23 03:52:21;;;;;;;;;;;;;;;;;;6199320;23;19908;-85
2022/09/23 03:54:47;;;;;;;;;;;;;;;;;;6198190;23;19908;-86
2022/09/23 03:57:12;;;;;;;;;;;;;;;;;;6202666;23;19911;-86
2022/09/23 03:59:38;;;;;;;;;;;;;;;;;;6203998;23;19982;-87
2022/09/23 04:02:04;;;;;;;;;;;;;;;;;;6205119;23;19943;-85
2022/09/23 04:04:32;;;;;;;;;;;;;;;;;;6232007;23;20393;-86
2022/09/23 04:06:58;;;;;;;;;;;;;;;;;;6204636;23;19903;-86
2022/09/23 04:09:23;;;;;;;;;;;;;;;;;;6203040;23;19908;-88
2022/09/23 04:11:48;;;;;;;;;;;;;;;;;;6203597;23;19951;-86
2022/09/23 04:14:14;;;;;;;;;;;;;;;;;;6203002;23;19914;-87
2022/09/23 04:16:39;;;;;;;;;;;;;;;;;;6204836;23;19907;-87
2022/09/23 04:19:05;;;;;;;;;;;;;;;;;;6200500;23;19907;-87
2022/09/23 04:21:30;;;;;;;;;;;;;;;;;;6201372;23;19979;-87
2022/09/23 04:23:55;;;;;;;;;;;;;;;;;;6225608;23;20023;-86
2022/09/23 04:26:21;;;;;;;;;;;;;;;;;;6198705;23;19978;-87
2022/09/23 04:28:46;;;;;;;;;;;;;;;;;;6200899;23;20367;-86
2022/09/23 04:31:11;;;;;;;;;;;;;;;;;;6202697;23;19908;-87
2022/09/23 04:33:37;;;;;;;;;;;;;;;;;;6204140;23;19908;-86
2022/09/23 04:36:02;;;;;;;;;;;;;;;;;;6207647;23;19904;-87
2022/09/23 04:38:29;;;;;;;;;;;;;;;;;;6203865;23;19927;-86
2022/09/23 04:40:54;;;;;;;;;;;;;;;;;;6201377;23;19907;-87
2022/09/23 04:43:22;;;;;;;;;;;;;;;;;;6202667;23;19908;-85
2022/09/23 04:45:47;;;;;;;;;;;;;;;;;;6201405;23;19947;-87
2022/09/23 04:48:12;;;;;;;;;;;;;;;;;;6202088;23;19905;-88
2022/09/23 04:50:40;;;;;;;;;;;;;;;;;;6203432;23;19904;-87
2022/09/23 04:53:05;;;;;;;;;;;;;;;;;;6196620;23;19912;-86
2022/09/23 04:55:31;;;;;;;;;;;;;;;;;;6195146;23;20342;-84
2022/09/23 04:57:56;;;;;;;;;;;;;;;;;;6192216;23;19919;-84
2022/09/23 05:00:27;;;;;;;;;;;;;;;;;;6192685;23;20284;-84
2022/09/23 05:02:52;;;;;;;;;;;;;;;;;;6192145;23;19914;-84
2022/09/23 05:05:20;;;;;;;;;;;;;;;;;;6202191;23;19904;-85
2022/09/23 05:07:46;;;;;;;;;;;;;;;;;;6203500;23;19915;-86
2022/09/23 05:10:11;;;;;;;;;;;;;;;;;;6200562;23;19904;-87
2022/09/23 05:12:36;;;;;;;;;;;;;;;;;;6205616;23;19934;-88
2022/09/23 05:15:02;;;;;;;;;;;;;;;;;;6205425;23;19986;-87
2022/09/23 05:17:27;;;;;;;;;;;;;;;;;;6204550;23;19955;-87
2022/09/23 05:19:52;;;;;;;;;;;;;;;;;;6202404;23;19904;-88
2022/09/23 05:22:18;;;;;;;;;;;;;;;;;;6204224;23;19895;-87
2022/09/23 05:24:43;;;;;;;;;;;;;;;;;;6204346;23;19905;-85
2022/09/23 05:27:09;;;;;;;;;;;;;;;;;;6203858;23;19908;-88
2022/09/23 05:29:34;;;;;;;;;;;;;;;;;;6206722;23;19911;-88
2022/09/23 05:32:00;;;;;;;;;;;;;;;;;;6204362;23;19912;-88
2022/09/23 05:34:25;;;;;;;;;;;;;;;;;;6202023;23;19943;-86
2022/09/23 05:36:52;;;;;;;;;;;;;;;;;;6209811;23;19912;-87
2022/09/23 05:39:17;;;;;;;;;;;;;;;;;;6209216;23;19908;-88
2022/09/23 05:41:43;;;;;;;;;;;;;;;;;;6204103;23;19994;-88
2022/09/23 05:44:08;;;;;;;;;;;;;;;;;;6206890;23;19904;-87
2022/09/23 05:46:34;;;;;;;;;;;;;;;;;;6207281;23;19911;-85
2022/09/23 05:48:59;;;;;;;;;;;;;;;;;;6205797;23;19903;-86
2022/09/23 05:51:50;;;;;;;;;;;;;;;;;;6209787;23;19922;-86
2022/09/23 05:54:15;;;;;;;;;;;;;;;;;;6203914;23;19907;-88
2022/09/23 05:56:40;;;;;;;;;;;;;;;;;;6203192;23;20359;-87
2022/09/23 05:59:06;;;;;;;;;;;;;;;;;;6203308;23;20354;-88
2022/09/23 06:01:32;;;;;;;;;;;;;;;;;;6203044;23;19923;-87
2022/09/23 06:03:57;;;;;;;;;;;;;;;;;;6203123;23;19908;-86
2022/09/23 06:06:24;;;;;;;;;;;;;;;;;;6205132;23;19910;-89
2022/09/23 06:08:51;;;;;;;;;;;;;;;;;;6207222;23;19908;-88
2022/09/23 06:11:16;;;;;;;;;;;;;;;;;;6205538;23;19914;-87
2022/09/23 06:13:42;;;;;;;;;;;;;;;;;;6213560;23;19911;-89
2022/09/23 06:16:07;;;;;;;;;;;;;;;;;;6210849;23;20339;-89
2022/09/23 06:18:33;;;;;;;;;;;;;;;;;;6211981;23;19930;-87
2022/09/23 06:20:58;;;;;;;;;;;;;;;;;;6206990;23;19903;-87
2022/09/23 06:23:23;;;;;;;;;;;;;;;;;;6206040;23;19908;-87
2022/09/23 06:25:49;;;;;;;;;;;;;;;;;;6205498;23;19884;-86
2022/09/23 06:28:14;;;;;;;;;;;;;;;;;;6233695;23;19934;-87
2022/09/23 06:30:39;;;;;;;;;;;;;;;;;;6205667;23;19904;-87
2022/09/23 06:33:05;;;;;;;;;;;;;;;;;;6208000;23;19915;-90
2022/09/23 06:35:32;;;;;;;;;;;;;;;;;;6237678;23;19922;-89
2022/09/23 06:37:58;;;;;;;;;;;;;;;;;;6208933;23;19916;-87
2022/09/23 06:40:23;;;;;;;;;;;;;;;;;;6208426;23;20414;-87
2022/09/23 06:42:49;;;;;;;;;;;;;;;;;;6205461;23;19953;-88
2022/09/23 06:45:15;;;;;;;;;;;;;;;;;;6213553;23;19926;-88
2022/09/23 06:47:40;;;;;;;;;;;;;;;;;;6231508;23;19936;-88
2022/09/23 06:50:05;;;;;;;;;;;;;;;;;;6230126;23;19911;-87
2022/09/23 06:52:31;;;;;;;;;;;;;;;;;;6221193;23;19998;-87
2022/09/23 06:54:56;;;;;;;;;;;;;;;;;;6201076;23;19904;-87
2022/09/23 06:57:21;;;;;;;;;;;;;;;;;;6203227;23;19908;-87
2022/09/23 06:59:47;;;;;;;;;;;;;;;;;;6208307;23;19904;-88
2022/09/23 07:02:13;;;;;;;;;;;;;;;;;;6179941;23;19915;-89
2022/09/23 07:04:39;;;;;;;;;;;;;;;;;;6205739;23;19924;-89
2022/09/23 07:07:05;;;;;;;;;;;;;;;;;;6207363;23;19915;-88
2022/09/23 07:09:30;;;;;;;;;;;;;;;;;;6203300;23;19905;-87
2022/09/23 07:11:56;;;;;;;;;;;;;;;;;;6207173;23;19923;-89
2022/09/23 07:14:21;;;;;;;;;;;;;;;;;;6188041;23;19967;-88
2022/09/23 07:16:47;;;;;;;;;;;;;;;;;;6234659;23;19983;-89
2022/09/23 07:19:12;;;;;;;;;;;;;;;;;;6235813;23;20410;-87
2022/09/23 07:21:53;;;;;;;;;;;;;;;;;;6232323;23;19920;-88
2022/09/23 07:24:19;;;;;;;;;;;;;;;;;;6237516;23;19907;-88
2022/09/23 07:26:44;;;;;;;;;;;;;;;;;;6234128;23;19911;-88
2022/09/23 07:29:09;;;;;;;;;;;;;;;;;;6233023;23;19934;-88
2022/09/23 07:31:36;;;;;;;;;;;;;;;;;;6236628;23;19908;-88
2022/09/23 07:34:02;;;;;;;;;;;;;;;;;;6240938;23;19915;-89
2022/09/23 07:36:30;;;;;;;;;;;;;;;;;;6238364;23;19891;-87
2022/09/23 07:38:59;;;;;;;;;;;;;;;;;;6202083;23;19900;-88
2022/09/23 07:41:26;;;;;;;;;;;;;;;;;;6208202;23;19959;-89
2022/09/23 07:43:57;;;;;;;;;;;;;;;;;;6207245;23;19912;-88
2022/09/23 07:46:24;;;;;;;;;;;;;;;;;;6205330;23;19908;-88
2022/09/23 07:48:51;;;;;;;;;;;;;;;;;;6205621;23;19964;-88
2022/09/23 07:51:17;;;;;;;;;;;;;;;;;;6204590;23;19916;-90
2022/09/23 07:53:42;;;;;;;;;;;;;;;;;;6205760;23;19900;-88
2022/09/23 07:58:38;;;;;;;;;;;;;;;;;;6174850;23;19948;-88
2022/09/23 08:03:42;;;;;;;;;;;;;;;;;;6236763;23;19943;-87
2022/09/23 08:06:08;;;;;;;;;;;;;;;;;;6211975;23;19943;-88
2022/09/23 08:08:34;;;;;;;;;;;;;;;;;;6212011;23;19904;-88
2022/09/23 08:11:01;;;;;;;;;;;;;;;;;;6211232;23;19930;-88
2022/09/23 08:13:27;;;;;;;;;;;;;;;;;;6231818;23;19930;-88
2022/09/23 08:15:53;;;;;;;;;;;;;;;;;;6242029;23;19912;-87
2022/09/23 08:18:18;;;;;;;;;;;;;;;;;;6242949;23;19903;-87
2022/09/23 08:20:46;;;;;;;;;;;;;;;;;;6267659;23;19930;-89
2022/09/23 08:23:13;;;;;;;;;;;;;;;;;;6266249;23;19907;-87
2022/09/23 08:25:39;;;;;;;;;;;;;;;;;;6241325;23;19915;-89
2022/09/23 08:28:04;;;;;;;;;;;;;;;;;;6222200;22;19920;-88
2022/09/23 08:30:29;;;;;;;;;;;;;;;;;;6207226;23;19919;-86
2022/09/23 08:32:55;;;;;;;;;;;;;;;;;;6212430;23;19908;-88
2022/09/23 08:35:24;;;;;;;;;;;;;;;;;;6212137;23;19908;-88
2022/09/23 08:37:50;;;;;;;;;;;;;;;;;;6210445;23;19908;-86
2022/09/23 08:40:16;;;;;;;;;;;;;;;;;;6236299;23;19907;-88
2022/09/23 08:42:41;;;;;;;;;;;;;;;;;;6209150;23;19904;-88
2022/09/23 08:45:07;;;;;;;;;;;;;;;;;;6183246;23;19907;-86
2022/09/23 08:47:32;;;;;;;;;;;;;;;;;;6208616;23;19931;-88
2022/09/23 08:49:58;;;;;;;;;;;;;;;;;;6206693;23;19915;-87
2022/09/23 08:52:23;;;;;;;;;;;;;;;;;;6206524;23;19907;-87
2022/09/23 08:54:48;;;;;;;;;;;;;;;;;;6186272;23;19908;-86
2022/09/23 08:57:14;;;;;;;;;;;;;;;;;;6209576;23;19923;-87
2022/09/23 08:59:40;;;;;;;;;;;;;;;;;;6212169;23;19911;-86
2022/09/23 09:02:05;;;;;;;;;;;;;;;;;;6211751;23;19904;-88
2022/09/23 09:04:31;;;;;;;;;;;;;;;;;;6185642;23;19915;-88
2022/09/23 09:06:58;;;;;;;;;;;;;;;;;;6239352;23;19907;-86
2022/09/23 09:09:24;;;;;;;;;;;;;;;;;;6212806;23;19966;-88
2022/09/23 09:11:49;;;;;;;;;;;;;;;;;;6193100;23;19920;-89
2022/09/23 09:14:16;;;;;;;;;;;;;;;;;;6179259;23;19908;-90
2022/09/23 09:16:45;;;;;;;;;;;;;;;;;;6203453;23;19904;-88
2022/09/23 09:19:11;;;;;;;;;;;;;;;;;;6204097;23;19903;-87
2022/09/23 09:21:37;;;;;;;;;;;;;;;;;;6200042;23;19904;-89
2022/09/23 09:24:02;;;;;;;;;;;;;;;;;;6201702;23;19908;-87
2022/09/23 09:26:29;;;;;;;;;;;;;;;;;;6204804;23;19912;-91
2022/09/23 09:28:58;;;;;;;;;;;;;;;;;;6202607;23;20241;-86
2022/09/23 09:31:24;;;;;;;;;;;;;;;;;;6201003;23;19940;-88
2022/09/23 09:33:50;;;;;;;;;;;;;;;;;;6202763;23;20352;-90
2022/09/23 09:36:15;;;;;;;;;;;;;;;;;;6200425;23;19904;-89
2022/09/23 09:38:41;;;;;;;;;;;;;;;;;;6204312;23;19924;-88
2022/09/23 09:41:12;;;;;;;;;;;;;;;;;;6179428;23;19920;-87
2022/09/23 09:43:39;;;;;;;;;;;;;;;;;;6203842;23;19924;-87
2022/09/23 09:46:05;;;;;;;;;;;;;;;;;;6204592;23;19885;-90
2022/09/23 09:49:15;;;;;;;;;;;;;;;;;;6189778;23;19943;-89
2022/09/23 09:51:42;;;;;;;;;;;;;;;;;;6237163;23;19911;-87
2022/09/23 09:54:10;;;;;;;;;;;;;;;;;;6211680;23;20026;-87
2022/09/23 09:56:36;;;;;;;;;;;;;;;;;;6237895;23;19919;-88
2022/09/23 09:59:01;;;;;;;;;;;;;;;;;;6236314;23;19904;-87
2022/09/23 10:01:27;;;;;;;;;;;;;;;;;;6238054;23;19915;-88
2022/09/23 10:03:53;;;;;;;;;;;;;;;;;;6240292;23;19947;-88
2022/09/23 10:06:19;;;;;;;;;;;;;;;;;;6238623;23;19907;-89
2022/09/23 10:08:58;;;;;;;;;;;;;;;;;;6202530;22;19927;-89
2022/09/23 10:11:24;;;;;;;;;;;;;;;;;;6242374;23;20037;-90
2022/09/23 10:13:50;;;;;;;;;;;;;;;;;;6241969;23;19907;-88
2022/09/23 10:16:16;;;;;;;;;;;;;;;;;;6242681;23;19907;-88
2022/09/23 10:18:42;;;;;;;;;;;;;;;;;;6242255;22;19945;-87
2022/09/23 10:21:08;;;;;;;;;;;;;;;;;;6243527;23;19888;-88
2022/09/23 10:23:34;;;;;;;;;;;;;;;;;;6243207;23;19919;-88
2022/09/23 10:26:00;;;;;;;;;;;;;;;;;;6218630;23;19914;-88
2022/09/23 10:28:28;;;;;;;;;;;;;;;;;;6244611;22;19907;-88
2022/09/23 10:30:54;;;;;;;;;;;;;;;;;;6247629;22;19934;-90
2022/09/23 10:33:21;;;;;;;;;;;;;;;;;;6270080;22;19896;-87
2022/09/23 10:35:46;;;;;;;;;;;;;;;;;;6241969;23;19914;-89
2022/09/23 10:38:12;;;;;;;;;;;;;;;;;;6241772;23;19904;-87
2022/09/23 10:48:39;;;;;;;;;;;;;;;;;;6239761;23;19920;-90
2022/09/23 10:51:11;;;;;;;;;;;;;;;;;;6216725;23;19888;-90
2022/09/23 10:53:37;;;;;;;;;;;;;;;;;;6217185;23;19896;-89
2022/09/23 10:56:03;;;;;;;;;;;;;;;;;;6212809;23;19924;-89
2022/09/23 10:58:28;;;;;;;;;;;;;;;;;;6211425;23;19915;-91
2022/09/23 11:00:56;;;;;;;;;;;;;;;;;;6212774;23;19966;-88
2022/09/23 11:03:21;;;;;;;;;;;;;;;;;;6211881;23;19908;-88
2022/09/23 11:05:47;;;;;;;;;;;;;;;;;;6209929;23;19991;-88
2022/09/23 11:08:13;;;;;;;;;;;;;;;;;;6236267;23;19935;-88
2022/09/23 11:10:42;;;;;;;;;;;;;;;;;;6210850;23;19947;-88
2022/09/23 11:13:07;;;;;;;;;;;;;;;;;;6209027;23;19915;-88
2022/09/23 11:15:33;;;;;;;;;;;;;;;;;;6209821;23;19927;-88
2022/09/23 11:17:58;;;;;;;;;;;;;;;;;;6209582;23;19908;-89
2022/09/23 11:20:24;;;;;;;;;;;;;;;;;;6209651;23;19887;-87
2022/09/23 11:22:51;;;;;;;;;;;;;;;;;;6209498;23;19994;-89
2022/09/23 11:25:17;;;;;;;;;;;;;;;;;;6210462;23;19904;-88
2022/09/23 11:27:42;;;;;;;;;;;;;;;;;;6208790;23;19919;-86
2022/09/23 11:30:09;;;;;;;;;;;;;;;;;;6209475;23;19903;-89
2022/09/23 11:32:39;;;;;;;;;;;;;;;;;;6232891;23;19919;-88
2022/09/23 11:35:05;;;;;;;;;;;;;;;;;;6188024;23;19908;-89
2022/09/23 11:37:50;;;;;;;;;;;;;;;;;;6234979;23;19907;-88
2022/09/23 11:40:15;;;;;;;;;;;;;;;;;;6208637;23;19914;-86
2022/09/23 11:42:41;;;;;;;;;;;;;;;;;;6210472;23;19907;-85
2022/09/23 11:45:06;;;;;;;;;;;;;;;;;;6209829;23;19908;-87
2022/09/23 11:47:35;;;;;;;;;;;;;;;;;;6198314;23;19919;-84
2022/09/23 11:50:01;;;;;;;;;;;;;;;;;;6209278;23;19888;-88
2022/09/23 11:52:26;;;;;;;;;;;;;;;;;;6207576;23;19914;-87
2022/09/23 11:54:51;;;;;;;;;;;;;;;;;;6209701;23;19907;-88
2022/09/23 11:57:17;;;;;;;;;;;;;;;;;;6211698;23;20324;-87
2022/09/23 11:59:45;;;;;;;;;;;;;;;;;;6207594;23;19930;-89
2022/09/23 12:02:13;;;;;;;;;;;;;;;;;;6206560;23;19903;-87
2022/09/23 12:04:38;;;;;;;;;;;;;;;;;;6205981;23;19920;-87
2022/09/23 12:07:04;;;;;;;;;;;;;;;;;;6234504;23;19904;-88
2022/09/23 12:09:30;;;;;;;;;;;;;;;;;;6231451;23;19912;-87
2022/09/23 12:11:55;;;;;;;;;;;;;;;;;;6232400;23;19951;-88
2022/09/23 12:14:20;;;;;;;;;;;;;;;;;;6231598;23;19908;-89
2022/09/23 12:19:40;;;;;;;;;;;;;;;;;;6176657;23;19927;-88
2022/09/23 12:22:06;;;;;;;;;;;;;;;;;;6151631;23;19956;-87
2022/09/23 12:24:32;;;;;;;;;;;;;;;;;;6151087;23;19905;-87
2022/09/23 12:26:57;;;;;;;;;;;;;;;;;;6146673;23;19908;-88
2022/09/23 12:29:23;;;;;;;;;;;;;;;;;;6146607;23;19975;-87
2022/09/23 12:31:50;;;;;;;;;;;;;;;;;;6147786;23;19912;-90
2022/09/23 12:34:19;;;;;;;;;;;;;;;;;;6150865;23;20359;-87
2022/09/23 12:36:45;;;;;;;;;;;;;;;;;;6183331;23;19952;-88
2022/09/23 12:39:14;;;;;;;;;;;;;;;;;;6237777;23;19915;-89
2022/09/23 12:41:40;;;;;;;;;;;;;;;;;;6210580;23;19911;-89
2022/09/23 12:44:11;;;;;;;;;;;;;;;;;;6232769;23;19916;-88
2022/09/23 12:46:39;;;;;;;;;;;;;;;;;;6210590;23;19904;-89
2022/09/23 12:51:34;;;;;;;;;;;;;;;;;;6238043;23;19965;-87
2022/09/23 12:53:59;;;;;;;;;;;;;;;;;;6207005;23;19907;-88
2022/09/23 12:56:25;;;;;;;;;;;;;;;;;;6210251;23;19904;-88
2022/09/23 12:58:50;;;;;;;;;;;;;;;;;;6210425;23;19979;-87
2022/09/23 13:01:16;;;;;;;;;;;;;;;;;;6209825;23;19935;-86
2022/09/23 13:06:38;;;;;;;;;;;;;;;;;;6235559;23;19895;-89
2022/09/23 13:09:28;;;;;;;;;;;;;;;;;;6234900;23;19915;-88
2022/09/23 13:11:54;;;;;;;;;;;;;;;;;;6212970;23;19994;-88
2022/09/23 13:14:20;;;;;;;;;;;;;;;;;;6212416;23;19884;-88
2022/09/23 13:16:46;;;;;;;;;;;;;;;;;;6210194;23;19912;-86
2022/09/23 13:19:12;;;;;;;;;;;;;;;;;;6236415;23;19984;-86
2022/09/23 13:21:38;;;;;;;;;;;;;;;;;;6210643;23;19911;-86
2022/09/23 13:24:03;;;;;;;;;;;;;;;;;;6208728;23;19908;-88
2022/09/23 13:26:29;;;;;;;;;;;;;;;;;;6209558;23;19903;-87
2022/09/23 13:28:55;;;;;;;;;;;;;;;;;;6209908;23;19951;-87
2022/09/23 13:31:20;;;;;;;;;;;;;;;;;;6210378;23;19954;-87
2022/09/23 13:33:46;;;;;;;;;;;;;;;;;;6213473;23;19935;-87
2022/09/23 13:36:11;;;;;;;;;;;;;;;;;;6212146;23;19924;-86
2022/09/23 13:38:37;;;;;;;;;;;;;;;;;;6210193;23;19927;-88
2022/09/23 13:41:03;;;;;;;;;;;;;;;;;;6210730;23;19903;-87
2022/09/23 13:46:04;;;;;;;;;;;;;;;;;;6211785;23;19923;-89
2022/09/23 13:48:29;;;;;;;;;;;;;;;;;;6240172;22;20305;-88
2022/09/23 13:50:55;;;;;;;;;;;;;;;;;;6240288;23;19904;-87
2022/09/23 13:53:20;;;;;;;;;;;;;;;;;;6241069;23;19916;-88
2022/09/23 13:55:45;;;;;;;;;;;;;;;;;;6240237;23;19907;-87
2022/09/23 13:58:11;;;;;;;;;;;;;;;;;;6237271;23;19908;-87
2022/09/23 14:00:36;;;;;;;;;;;;;;;;;;6238175;23;19930;-86
2022/09/23 14:03:02;;;;;;;;;;;;;;;;;;6240544;23;19930;-89
2022/09/23 14:05:27;;;;;;;;;;;;;;;;;;6238089;23;19911;-90
2022/09/23 14:07:52;;;;;;;;;;;;;;;;;;6241931;23;19914;-87
2022/09/23 14:10:18;;;;;;;;;;;;;;;;;;6238435;23;19903;-87
2022/09/23 14:12:43;;;;;;;;;;;;;;;;;;6238468;22;19922;-88
2022/09/23 14:15:09;;;;;;;;;;;;;;;;;;6239610;23;19903;-87
2022/09/23 14:17:35;;;;;;;;;;;;;;;;;;6239237;23;19907;-87
2022/09/23 14:20:00;;;;;;;;;;;;;;;;;;6237547;23;19951;-87
2022/09/23 14:22:25;;;;;;;;;;;;;;;;;;6237784;23;19942;-88
2022/09/23 14:24:51;;;;;;;;;;;;;;;;;;6237303;23;19903;-88
2022/09/23 14:27:16;;;;;;;;;;;;;;;;;;6238111;23;19955;-87
2022/09/23 14:29:42;;;;;;;;;;;;;;;;;;6236908;23;19963;-87
2022/09/23 14:32:07;;;;;;;;;;;;;;;;;;6237823;23;19915;-88
2022/09/23 14:34:32;;;;;;;;;;;;;;;;;;6237231;23;19910;-87
2022/09/23 14:39:42;;;;;;;;;;;;;;;;;;6263768;23;19915;-87
2022/09/23 14:42:07;;;;;;;;;;;;;;;;;;6235364;23;19904;-85
2022/09/23 14:44:34;;;;;;;;;;;;;;;;;;6237413;23;19917;-87
2022/09/23 14:47:00;;;;;;;;;;;;;;;;;;6262064;23;19934;-87
2022/09/23 14:49:25;;;;;;;;;;;;;;;;;;6236392;23;19913;-86
2022/09/23 14:51:52;;;;;;;;;;;;;;;;;;6235126;23;20275;-87
2022/09/23 14:54:17;;;;;;;;;;;;;;;;;;6236263;22;19951;-88
2022/09/23 14:56:42;;;;;;;;;;;;;;;;;;6240458;23;19911;-86
2022/09/23 14:59:08;;;;;;;;;;;;;;;;;;6237179;23;19978;-87
2022/09/23 15:01:33;;;;;;;;;;;;;;;;;;6240364;22;19884;-88
2022/09/23 15:03:59;;;;;;;;;;;;;;;;;;6238212;23;19938;-87
2022/09/23 15:06:24;;;;;;;;;;;;;;;;;;6212868;22;19930;-87
2022/09/23 15:08:50;;;;;;;;;;;;;;;;;;6209232;23;19951;-86
2022/09/23 15:11:16;;;;;;;;;;;;;;;;;;6206218;23;19967;-88
2022/09/23 15:13:43;;;;;;;;;;;;;;;;;;6181387;23;19907;-87
2022/09/23 15:16:09;;;;;;;;;;;;;;;;;;6207071;23;19904;-87
2022/09/23 15:18:34;;;;;;;;;;;;;;;;;;6183531;23;20320;-86
2022/09/23 15:21:00;;;;;;;;;;;;;;;;;;6207143;23;19908;-88
2022/09/23 15:23:25;;;;;;;;;;;;;;;;;;6207395;23;19908;-87
2022/09/23 15:25:51;;;;;;;;;;;;;;;;;;6232670;23;19904;-87
2022/09/23 15:28:16;;;;;;;;;;;;;;;;;;6208112;23;19908;-87
2022/09/23 15:30:42;;;;;;;;;;;;;;;;;;6206153;23;19926;-88
2022/09/23 15:33:08;;;;;;;;;;;;;;;;;;6179564;23;19912;-86
2022/09/23 15:35:34;;;;;;;;;;;;;;;;;;6204894;23;19904;-88
2022/09/23 15:38:00;;;;;;;;;;;;;;;;;;6231410;23;19908;-87
2022/09/23 15:40:27;;;;;;;;;;;;;;;;;;6230727;23;19904;-88
2022/09/23 15:42:52;;;;;;;;;;;;;;;;;;6203251;23;19955;-87
2022/09/23 15:45:19;;;;;;;;;;;;;;;;;;6206194;23;19904;-88
2022/09/23 15:47:45;;;;;;;;;;;;;;;;;;6203651;23;19920;-87
2022/09/23 15:50:11;;;;;;;;;;;;;;;;;;6202352;23;19912;-86
2022/09/23 15:52:38;;;;;;;;;;;;;;;;;;6177988;23;20237;-86
2022/09/23 15:55:04;;;;;;;;;;;;;;;;;;6203039;23;19927;-87
2022/09/23 15:57:29;;;;;;;;;;;;;;;;;;6201400;23;19907;-87
2022/09/23 15:59:57;;;;;;;;;;;;;;;;;;6201856;23;19911;-86
2022/09/23 16:02:22;;;;;;;;;;;;;;;;;;6201016;23;19908;-88
2022/09/23 16:04:51;;;;;;;;;;;;;;;;;;6200143;23;20038;-88
2022/09/23 16:07:18;;;;;;;;;;;;;;;;;;6166312;23;19926;-89
2022/09/23 16:09:47;;;;;;;;;;;;;;;;;;6162877;23;19904;-87
2022/09/23 16:12:12;;;;;;;;;;;;;;;;;;6171466;23;19934;-90
2022/09/23 16:14:38;;;;;;;;;;;;;;;;;;6167826;23;19905;-88
2022/09/23 16:17:03;;;;;;;;;;;;;;;;;;6170011;23;19932;-87
2022/09/23 16:19:33;;;;;;;;;;;;;;;;;;6172996;23;19905;-89
2022/09/23 16:21:58;;;;;;;;;;;;;;;;;;6172349;23;19908;-88
2022/09/23 16:24:23;;;;;;;;;;;;;;;;;;6198671;23;19924;-87
2022/09/23 16:26:49;;;;;;;;;;;;;;;;;;6169249;23;19939;-86
2022/09/23 16:29:14;;;;;;;;;;;;;;;;;;6195997;23;19960;-88
2022/09/23 16:31:40;;;;;;;;;;;;;;;;;;6172346;23;20004;-87
2022/09/23 16:34:06;;;;;;;;;;;;;;;;;;6170648;23;19904;-87
2022/09/23 16:36:31;;;;;;;;;;;;;;;;;;6172324;23;19931;-88
2022/09/23 16:38:56;;;;;;;;;;;;;;;;;;6197614;23;19904;-88
2022/09/23 16:41:22;;;;;;;;;;;;;;;;;;6172959;23;19983;-87
2022/09/23 16:43:47;;;;;;;;;;;;;;;;;;6198854;23;19905;-87
2022/09/23 16:46:13;;;;;;;;;;;;;;;;;;6174612;23;19932;-86
2022/09/23 16:48:39;;;;;;;;;;;;;;;;;;6175239;23;19905;-88
2022/09/23 16:51:04;;;;;;;;;;;;;;;;;;6172983;23;19919;-86
2022/09/23 16:53:30;;;;;;;;;;;;;;;;;;6196953;23;19913;-87
2022/09/23 16:55:58;;;;;;;;;;;;;;;;;;6174976;23;19955;-87
2022/09/23 16:58:23;;;;;;;;;;;;;;;;;;6196929;23;19909;-88
2022/09/23 17:03:39;;;;;;;;;;;;;;;;;;6172002;23;20256;-87
2022/09/23 17:06:06;;;;;;;;;;;;;;;;;;6176993;23;19936;-87
2022/09/23 17:08:31;;;;;;;;;;;;;;;;;;6204297;23;20326;-87